Latham, NY (12110)

5:26 AM EDT on August 26, 2016 (GMT -0400)
Latham (East) | | Change Station

Elev 295 ft 42.75 °N, 73.74 °W | Updated 1 minute ago

Light Rain
Light Rain Mist
71.6 °F
Feels Like 71.6 °F
N
0.0
Wind Variable Wind from SSE
Gusts 5.0 mph

Today
High -- | Low -- °F
--% Chance of Precip.
Yesterday
High -- | Low -- °F
Precip. -- in
Pressure 29.93 in
Visibility 4.0 miles
Clouds Mostly Cloudy 600 ft
Mostly Cloudy 3200 ft
Overcast 7500 ft
Dew Point 70 °F
Humidity 95%
Rainfall 0.07 in
Snow Depth Not available.
6:13 AM 7:38 PM
Last Quarter, 36% visible
SPECI KALB 260913Z 20004KT 4SM -RA BR BKN006 BKN032 OVC075 22/21 A2993 RMK AO2 RAB0854 P0001 T02220211
Pressure 29.93 in
Visibility 4.0 miles
Clouds Mostly Cloudy 600 ft
Mostly Cloudy 3200 ft
Overcast 7500 ft
Dew Point 70 °F
Humidity 95%
Rainfall 0.07 in
Snow Depth Not available.
6:13 AM 7:38 PM
Last Quarter, 36% visible
SPECI KALB 260913Z 20004KT 4SM -RA BR BKN006 BKN032 OVC075 22/21 A2993 RMK AO2 RAB0854 P0001 T02220211

10-Day Weather Forecast

Almanac

Astronomy

Aug. 26, 2016 Rise Set
Actual Time
Civil Twilight
Nautical Twilight
Astronomical Twilight
Moon
Length of Visible Light
Length of Day
Tomorrow will be .
, % of the Moon is Illuminated

Today's Extremes

State Highs State Lows

Community

WunderPhotos

Upload Photos

1,935,069 photos uploaded!

WunderBlog® & News

Nearby

Air Quality

  Air Quality AQ Index Pollutant
Not available.

Snow Depth

Station Depth Elevation

Earthquake Activity

City Distance Mag. Time & Date
Minimum magnitude displayed is 2.5.

Coastal Water Temperatures

Place Temperature

Stations

Nearby Weather Stations

Station Location Temp. Windchill Dew Point Humidity Wind Precip. Elev Updated Type
                   

Watches & Warnings

There are currently no watches in effect.